createdAt,value
2022-09-03T00:08:52.223Z,2.50
2022-09-03T00:19:02.989Z,3.10
2022-09-03T00:29:11.323Z,3.80
2022-09-03T00:39:20.817Z,2.50
2022-09-03T00:59:32.395Z,3.20
2022-09-03T01:09:49.134Z,3.80
2022-09-03T01:20:00.381Z,3.20
2022-09-03T01:30:07.328Z,3.00
2022-09-03T01:40:13.140Z,3.90
2022-09-03T01:50:23.890Z,4.20
2022-09-03T02:00:34.290Z,4.10
2022-09-03T02:10:42.776Z,3.90
2022-09-03T02:20:49.236Z,3.30
2022-09-03T02:30:57.179Z,2.30
2022-09-03T02:41:04.271Z,2.60
2022-09-03T02:51:14.063Z,2.80
2022-09-03T03:01:24.176Z,2.60
2022-09-03T03:11:32.072Z,2.40
2022-09-03T03:21:38.948Z,3.00
2022-09-03T03:31:46.235Z,3.80
2022-09-03T03:41:53.724Z,3.00
2022-09-03T03:52:03.266Z,3.00
2022-09-03T04:02:10.611Z,3.10
2022-09-03T04:12:19.333Z,3.80
2022-09-03T04:22:26.320Z,3.00
2022-09-03T04:32:52.536Z,3.40
2022-09-03T04:42:58.617Z,3.10
2022-09-03T04:53:08.298Z,3.30
2022-09-03T05:03:15.432Z,3.90
2022-09-03T05:13:22.610Z,4.30
2022-09-03T05:23:29.509Z,3.80
2022-09-03T05:33:36.840Z,3.70
2022-09-03T05:43:45.177Z,3.40
2022-09-03T05:53:53.607Z,3.70
2022-09-03T06:04:02.575Z,3.00
2022-09-03T06:14:12.104Z,3.30
2022-09-03T06:24:20.402Z,3.80
2022-09-03T06:34:28.837Z,3.30
2022-09-03T06:44:36.055Z,3.60
2022-09-03T06:54:43.144Z,4.00
2022-09-03T07:04:49.716Z,4.20
2022-09-03T07:14:56.737Z,4.40
2022-09-03T07:25:04.053Z,4.40
2022-09-03T07:35:10.246Z,3.90
2022-09-03T07:45:16.461Z,4.00
2022-09-03T07:55:23.565Z,4.30
2022-09-03T08:05:33.396Z,5.30
2022-09-03T08:15:43.428Z,4.50
2022-09-03T08:25:50.526Z,5.10
2022-09-03T08:35:57.623Z,4.70
2022-09-03T08:46:05.412Z,4.60
2022-09-03T08:56:14.845Z,4.70
2022-09-03T09:06:21.826Z,6.00
2022-09-03T09:16:26.841Z,5.50
2022-09-03T09:26:34.774Z,4.90
2022-09-03T09:36:44.059Z,5.30
2022-09-03T09:46:54.789Z,4.40
2022-09-03T09:57:07.471Z,4.80
2022-09-03T10:07:24.148Z,4.90
2022-09-03T10:17:37.169Z,4.30
2022-09-03T10:27:45.217Z,3.50
2022-09-03T10:48:06.643Z,3.80
2022-09-03T10:58:26.523Z,4.00
2022-09-03T11:08:35.323Z,4.10
2022-09-03T11:18:47.320Z,4.00
2022-09-03T11:28:57.031Z,4.20
2022-09-03T11:39:16.900Z,3.90
2022-09-03T11:49:27.751Z,4.70
2022-09-03T11:59:35.031Z,4.40
2022-09-03T12:10:09.973Z,4.20
2022-09-03T12:20:17.598Z,4.50
2022-09-03T12:30:26.128Z,3.80
2022-09-03T12:40:33.824Z,3.90
2022-09-03T12:50:42.421Z,4.50
2022-09-03T13:01:05.099Z,4.30
2022-09-03T13:11:11.073Z,4.00
2022-09-03T13:21:20.220Z,3.90
2022-09-03T13:31:27.282Z,4.10
2022-09-03T13:41:36.419Z,11.60
2022-09-03T13:51:48.145Z,6.10
2022-09-03T14:02:04.520Z,4.80
2022-09-03T14:12:11.593Z,11.90
2022-09-03T14:22:16.591Z,4.90
2022-09-03T14:32:25.851Z,5.40
2022-09-03T14:42:38.457Z,6.80
2022-09-03T14:53:00.482Z,6.10
2022-09-03T15:03:23.812Z,6.00
2022-09-03T15:13:31.602Z,7.50
2022-09-03T15:23:49.155Z,8.30
2022-09-03T15:33:59.501Z,5.40
2022-09-03T15:44:09.254Z,6.90
2022-09-03T15:54:16.180Z,10.10
2022-09-03T16:04:24.969Z,7.50
2022-09-03T16:14:31.166Z,7.70
2022-09-03T16:24:35.392Z,6.90
2022-09-03T16:34:42.309Z,7.00
2022-09-03T16:44:50.786Z,7.10
2022-09-03T16:55:06.835Z,6.20
2022-09-03T17:05:20.608Z,6.90
2022-09-03T17:15:35.787Z,6.30
2022-09-03T17:25:51.675Z,6.80
2022-09-03T17:35:58.283Z,5.60
2022-09-03T17:46:13.601Z,7.20
2022-09-03T17:56:26.351Z,6.80
2022-09-03T18:06:32.251Z,7.20
2022-09-03T18:16:46.996Z,6.60
2022-09-03T18:27:11.570Z,8.90
2022-09-03T18:37:35.823Z,9.20
2022-09-03T18:48:07.476Z,9.50
2022-09-03T18:58:42.899Z,10.60
2022-09-03T19:09:06.427Z,9.90
2022-09-03T19:19:39.468Z,9.10
2022-09-03T19:30:13.104Z,6.70
2022-09-03T19:40:56.032Z,6.90
2022-09-03T19:51:24.092Z,6.70
2022-09-03T20:01:52.101Z,6.40
2022-09-03T20:12:03.187Z,6.20
2022-09-03T20:22:18.720Z,6.00
2022-09-03T20:43:04.362Z,8.60
2022-09-03T20:53:14.788Z,8.00
2022-09-03T21:03:19.840Z,7.40
2022-09-03T21:13:38.718Z,8.90
2022-09-03T21:23:48.142Z,11.50
2022-09-03T21:33:57.032Z,10.20
2022-09-03T21:44:02.083Z,10.40
2022-09-03T21:54:15.311Z,10.30
2022-09-03T22:04:22.496Z,10.40
2022-09-03T22:14:37.205Z,12.20
2022-09-03T22:24:42.392Z,11.90
2022-09-03T22:35:06.875Z,12.30
2022-09-03T22:45:16.892Z,11.70
2022-09-03T22:55:23.226Z,10.90
2022-09-03T23:05:41.440Z,10.00
2022-09-03T23:16:00.111Z,15.30
2022-09-03T23:26:10.121Z,15.50
2022-09-03T23:36:43.363Z,11.00
2022-09-03T23:46:56.802Z,11.60
2022-09-03T23:57:13.477Z,9.60
